createdAt,value
2019-03-27T00:01:24.515Z,37.00
2019-03-27T00:03:54.165Z,37.63
2019-03-27T00:06:23.532Z,30.57
2019-03-27T00:08:53.439Z,30.87
2019-03-27T00:11:22.739Z,28.87
2019-03-27T00:13:52.983Z,26.33
2019-03-27T00:16:22.570Z,25.57
2019-03-27T00:18:52.227Z,27.23
2019-03-27T00:21:57.626Z,27.30
2019-03-27T00:24:27.247Z,30.27
2019-03-27T00:27:15.479Z,35.87
2019-03-27T00:30:04.037Z,27.17
2019-03-27T00:32:52.537Z,27.33
2019-03-27T00:35:41.042Z,32.97
2019-03-27T00:38:29.578Z,25.70
2019-03-27T00:41:17.787Z,26.20
2019-03-27T00:44:06.029Z,29.57
2019-03-27T00:46:54.785Z,30.53
2019-03-27T00:49:43.292Z,27.30
2019-03-27T00:52:31.832Z,23.73
2019-03-27T00:55:20.060Z,31.80
2019-03-27T00:58:08.661Z,23.90
2019-03-27T01:01:16.170Z,24.13
2019-03-27T01:04:04.615Z,29.40
2019-03-27T01:06:53.367Z,23.60
2019-03-27T01:12:20.418Z,30.13
2019-03-27T01:15:01.430Z,22.70
2019-03-27T01:17:42.081Z,24.23
2019-03-27T01:20:23.228Z,24.93
2019-03-27T01:23:04.387Z,21.50
2019-03-27T01:25:44.806Z,22.33
2019-03-27T01:28:26.007Z,20.97
2019-03-27T01:31:07.501Z,26.37
2019-03-27T01:33:48.635Z,20.23
2019-03-27T01:36:29.122Z,19.10
2019-03-27T01:39:10.220Z,22.63
2019-03-27T01:41:51.057Z,17.10
2019-03-27T01:44:33.039Z,18.30
2019-03-27T01:47:02.461Z,27.27
2019-03-27T01:49:31.818Z,19.60
2019-03-27T01:52:01.483Z,16.53
2019-03-27T01:54:31.137Z,22.60
2019-03-27T02:00:18.711Z,18.60
2019-03-27T02:03:07.205Z,15.80
2019-03-27T02:05:55.467Z,16.60
2019-03-27T02:08:36.454Z,17.83
2019-03-27T02:11:17.271Z,16.87
2019-03-27T02:13:57.821Z,19.30
2019-03-27T02:16:38.954Z,16.83
2019-03-27T02:19:20.486Z,23.00
2019-03-27T02:22:01.402Z,17.43
2019-03-27T02:24:42.054Z,19.70
2019-03-27T02:27:23.302Z,14.30
2019-03-27T02:30:04.334Z,17.10
2019-03-27T02:32:46.157Z,18.60
2019-03-27T02:38:25.736Z,19.07
2019-03-27T02:43:55.978Z,15.93
2019-03-27T02:46:25.824Z,16.77
2019-03-27T02:48:56.004Z,16.17
2019-03-27T02:51:25.709Z,16.20
2019-03-27T02:53:55.912Z,16.63
2019-03-27T02:56:25.311Z,17.97
2019-03-27T02:58:54.963Z,16.40
2019-03-27T03:01:25.108Z,17.03
2019-03-27T03:03:54.531Z,15.43
2019-03-27T03:06:24.275Z,17.77
2019-03-27T03:08:53.797Z,14.43
2019-03-27T03:11:23.389Z,12.87
2019-03-27T03:13:53.399Z,11.90
2019-03-27T03:16:23.061Z,15.33
2019-03-27T03:18:53.038Z,16.87
2019-03-27T03:21:23.356Z,16.20
2019-03-27T03:23:52.988Z,14.13
2019-03-27T03:26:22.983Z,14.90
2019-03-27T03:28:52.428Z,10.07
2019-03-27T03:32:16.674Z,13.57
2019-03-27T03:34:46.529Z,14.40
2019-03-27T03:37:15.914Z,9.47
2019-03-27T03:40:05.264Z,10.77
2019-03-27T03:42:35.138Z,12.30
2019-03-27T03:48:25.614Z,12.80
2019-03-27T03:51:14.521Z,10.23
2019-03-27T03:54:02.898Z,14.53
2019-03-27T03:56:51.407Z,13.10
2019-03-27T03:59:39.960Z,9.93
2019-03-27T04:02:28.180Z,13.30
2019-03-27T04:08:34.838Z,14.63
2019-03-27T04:11:23.068Z,12.00
2019-03-27T04:14:11.329Z,13.57
2019-03-27T04:17:16.290Z,15.43
2019-03-27T04:19:49.776Z,11.43
2019-03-27T04:22:38.111Z,13.47
2019-03-27T04:25:28.005Z,8.20
2019-03-27T04:28:16.420Z,6.80
2019-03-27T04:31:04.640Z,12.90
2019-03-27T04:33:53.406Z,9.40
2019-03-27T04:36:41.632Z,11.27
2019-03-27T04:39:30.465Z,8.57
2019-03-27T04:42:18.999Z,12.13
2019-03-27T04:45:07.246Z,7.70
2019-03-27T04:47:55.870Z,12.90
2019-03-27T04:50:44.878Z,10.70
2019-03-27T04:53:33.082Z,9.60
2019-03-27T04:56:21.350Z,10.80
2019-03-27T04:59:10.116Z,13.13
2019-03-27T05:01:39.382Z,9.40
2019-03-27T05:04:09.353Z,10.60
2019-03-27T05:06:39.169Z,10.70
2019-03-27T05:09:08.625Z,8.13
2019-03-27T05:11:37.974Z,10.30
2019-03-27T05:14:07.921Z,7.53
2019-03-27T05:16:37.377Z,13.63
2019-03-27T05:19:06.829Z,7.50
2019-03-27T05:21:36.098Z,11.10
2019-03-27T05:24:05.286Z,10.00
2019-03-27T05:26:34.517Z,10.63
2019-03-27T05:29:04.482Z,7.40
2019-03-27T05:31:33.991Z,11.93
2019-03-27T05:34:03.213Z,10.37
2019-03-27T05:36:32.662Z,9.70
2019-03-27T05:39:02.127Z,9.33
2019-03-27T05:41:31.887Z,10.07
2019-03-27T05:44:01.377Z,11.27
2019-03-27T05:46:30.840Z,12.90
2019-03-27T05:48:59.990Z,10.60
2019-03-27T05:51:29.160Z,11.43
2019-03-27T05:53:58.359Z,8.07
2019-03-27T05:56:28.096Z,8.67
2019-03-27T05:58:57.889Z,6.97
2019-03-27T06:01:27.570Z,8.87
2019-03-27T06:03:57.018Z,7.43
2019-03-27T06:06:26.950Z,9.10
2019-03-27T06:08:56.484Z,7.93
2019-03-27T06:11:26.197Z,11.23
2019-03-27T06:13:56.289Z,5.23
2019-03-27T06:16:25.759Z,11.20
2019-03-27T06:18:55.569Z,13.37
2019-03-27T06:21:25.333Z,11.20
2019-03-27T06:23:54.511Z,10.17
2019-03-27T06:26:24.238Z,8.10
2019-03-27T06:28:53.416Z,8.17
2019-03-27T06:31:23.664Z,12.73
2019-03-27T06:33:53.199Z,13.40
2019-03-27T06:36:22.370Z,9.13
2019-03-27T06:38:52.386Z,13.67
2019-03-27T06:41:21.654Z,9.60
2019-03-27T06:43:50.831Z,7.83
2019-03-27T06:46:20.043Z,12.13
2019-03-27T06:48:49.717Z,11.17
2019-03-27T06:51:19.169Z,10.60
2019-03-27T06:53:48.914Z,9.50
2019-03-27T06:56:18.182Z,11.90
2019-03-27T06:58:54.440Z,15.50
2019-03-27T07:01:19.418Z,10.87
2019-03-27T07:03:49.106Z,12.40
2019-03-27T07:06:19.075Z,17.30
2019-03-27T07:08:48.517Z,11.67
2019-03-27T07:11:18.694Z,16.03
2019-03-27T07:13:48.194Z,12.87
2019-03-27T07:16:17.935Z,22.67
2019-03-27T07:18:47.458Z,12.30
2019-03-27T07:21:16.780Z,15.30
2019-03-27T07:23:45.974Z,12.50
2019-03-27T07:26:15.378Z,11.33
2019-03-27T07:28:44.816Z,11.50
2019-03-27T07:31:14.309Z,12.50
2019-03-27T07:33:43.758Z,13.50
2019-03-27T07:36:13.501Z,16.27
2019-03-27T07:38:42.756Z,13.37
2019-03-27T07:41:11.953Z,15.83
2019-03-27T07:43:41.126Z,11.73
2019-03-27T07:46:10.392Z,15.77
2019-03-27T07:48:52.954Z,14.80
2019-03-27T07:51:11.547Z,12.17
2019-03-27T07:53:40.746Z,12.63
2019-03-27T07:56:09.914Z,13.50
2019-03-27T07:58:39.222Z,11.63
2019-03-27T08:01:08.469Z,12.13
2019-03-27T08:03:38.291Z,16.50
2019-03-27T08:06:07.658Z,15.47
2019-03-27T08:08:36.885Z,12.57
2019-03-27T08:11:06.099Z,15.17
2019-03-27T08:13:35.298Z,16.97
2019-03-27T08:16:04.742Z,10.13
2019-03-27T08:18:34.454Z,11.57
2019-03-27T08:21:04.441Z,14.03
2019-03-27T08:23:33.903Z,15.57
2019-03-27T08:26:03.385Z,11.73
2019-03-27T08:28:32.625Z,15.17
2019-03-27T08:31:02.360Z,10.87
2019-03-27T08:33:32.101Z,11.20
2019-03-27T08:36:01.825Z,12.93
2019-03-27T08:38:31.009Z,13.03
2019-03-27T08:41:00.276Z,12.80
2019-03-27T08:43:29.504Z,11.30
2019-03-27T08:45:58.974Z,11.37
2019-03-27T08:48:28.282Z,10.23
2019-03-27T08:50:57.517Z,9.17
2019-03-27T08:53:27.475Z,11.00
2019-03-27T08:55:57.073Z,9.57
2019-03-27T08:58:26.843Z,13.17
2019-03-27T09:00:56.361Z,12.53
2019-03-27T09:03:25.598Z,8.73
2019-03-27T09:05:55.071Z,12.10
2019-03-27T09:08:24.826Z,10.77
2019-03-27T09:10:54.521Z,9.17
2019-03-27T09:13:23.982Z,9.70
2019-03-27T09:15:53.169Z,10.10
2019-03-27T09:18:22.311Z,8.57
2019-03-27T09:20:52.032Z,7.10
2019-03-27T09:23:21.314Z,11.30
2019-03-27T09:25:51.245Z,10.23
2019-03-27T09:28:20.979Z,9.87
2019-03-27T09:30:50.640Z,8.83
2019-03-27T09:33:20.178Z,8.13
2019-03-27T09:35:49.874Z,12.10
2019-03-27T09:38:19.638Z,6.63
2019-03-27T09:40:49.335Z,7.20
2019-03-27T09:43:18.951Z,6.97
2019-03-27T09:45:48.963Z,8.30
2019-03-27T09:48:18.480Z,8.53
2019-03-27T09:50:47.701Z,7.10
2019-03-27T09:53:17.345Z,6.27
2019-03-27T09:55:46.825Z,7.37
2019-03-27T09:58:16.835Z,8.23
2019-03-27T10:00:57.053Z,6.30
2019-03-27T10:03:26.338Z,7.70
2019-03-27T10:05:55.814Z,10.10
2019-03-27T10:08:25.096Z,6.47
2019-03-27T10:10:55.067Z,6.80
2019-03-27T10:13:24.528Z,5.87
2019-03-27T10:15:54.518Z,6.97
2019-03-27T10:18:23.691Z,9.00
2019-03-27T10:20:53.262Z,7.60
2019-03-27T10:23:22.455Z,5.60
2019-03-27T10:25:51.998Z,8.80
2019-03-27T10:28:21.763Z,12.07
2019-03-27T10:30:51.016Z,13.63
2019-03-27T10:33:20.521Z,7.30
2019-03-27T10:35:49.718Z,8.23
2019-03-27T10:38:18.982Z,5.80
2019-03-27T10:40:48.483Z,10.30
2019-03-27T10:43:18.130Z,9.13
2019-03-27T10:45:47.834Z,6.97
2019-03-27T10:48:17.250Z,6.10
2019-03-27T10:50:46.712Z,9.20
2019-03-27T10:53:16.294Z,6.93
2019-03-27T10:55:45.894Z,6.67
2019-03-27T10:58:15.135Z,6.63
2019-03-27T11:00:44.602Z,11.90
2019-03-27T11:03:14.294Z,7.20
2019-03-27T11:05:43.517Z,6.07
2019-03-27T11:08:12.723Z,6.60
2019-03-27T11:10:41.910Z,6.70
2019-03-27T11:13:11.337Z,6.93
2019-03-27T11:15:40.779Z,6.47
2019-03-27T11:18:10.487Z,6.73
2019-03-27T11:20:39.923Z,7.57
2019-03-27T11:23:09.629Z,9.50
2019-03-27T11:25:39.082Z,6.03
2019-03-27T11:28:09.063Z,7.77
2019-03-27T11:30:41.793Z,7.37
2019-03-27T11:33:11.492Z,8.10
2019-03-27T11:35:40.818Z,6.77
2019-03-27T11:38:10.249Z,5.73
2019-03-27T11:40:39.721Z,4.67
2019-03-27T11:43:08.890Z,5.47
2019-03-27T11:45:38.445Z,7.10
2019-03-27T11:48:08.275Z,8.93
2019-03-27T11:50:44.646Z,5.47
2019-03-27T11:53:09.066Z,8.53
2019-03-27T11:55:38.664Z,5.47
2019-03-27T11:58:08.428Z,6.53
2019-03-27T12:00:38.124Z,6.63
2019-03-27T12:03:07.386Z,14.87
2019-03-27T12:05:36.865Z,6.27
2019-03-27T12:08:06.280Z,10.07
2019-03-27T12:10:35.485Z,9.07
2019-03-27T12:13:04.657Z,9.83
2019-03-27T12:15:41.752Z,4.77
2019-03-27T12:18:11.631Z,8.80
2019-03-27T12:20:40.959Z,5.53
2019-03-27T12:23:10.233Z,6.20
2019-03-27T12:25:39.735Z,8.40
2019-03-27T12:28:08.942Z,5.20
2019-03-27T12:30:38.377Z,9.87
2019-03-27T12:33:07.563Z,6.70
2019-03-27T12:35:36.759Z,6.23
2019-03-27T12:38:06.673Z,6.03
2019-03-27T12:40:36.377Z,5.93
2019-03-27T12:43:05.559Z,4.70
2019-03-27T12:45:35.269Z,5.27
2019-03-27T12:48:05.359Z,8.53
2019-03-27T12:50:34.843Z,5.20
2019-03-27T12:53:04.278Z,6.07
2019-03-27T12:55:33.978Z,5.37
2019-03-27T12:58:03.398Z,7.87
2019-03-27T13:00:32.586Z,6.67
2019-03-27T13:03:01.840Z,5.00
2019-03-27T13:05:31.049Z,3.93
2019-03-27T13:08:00.966Z,5.00
2019-03-27T13:10:31.007Z,10.03
2019-03-27T13:13:00.429Z,8.23
2019-03-27T13:15:29.894Z,8.80
2019-03-27T13:17:59.370Z,6.90
2019-03-27T13:20:28.571Z,10.97
2019-03-27T13:22:58.311Z,7.40
2019-03-27T13:25:27.571Z,6.03
2019-03-27T13:27:56.825Z,5.20
2019-03-27T13:30:26.018Z,4.97
2019-03-27T13:32:55.263Z,4.07
2019-03-27T13:35:24.524Z,10.83
2019-03-27T13:37:53.738Z,4.90
2019-03-27T13:40:22.989Z,5.47
2019-03-27T13:42:52.158Z,7.57
2019-03-27T13:45:21.618Z,5.03
2019-03-27T13:47:51.310Z,4.90
2019-03-27T13:50:21.658Z,5.90
2019-03-27T13:52:51.110Z,7.37
2019-03-27T13:55:20.946Z,5.90
2019-03-27T13:57:50.694Z,5.77
2019-03-27T14:00:20.190Z,5.20
2019-03-27T14:02:49.414Z,8.50
2019-03-27T14:05:19.396Z,5.60
2019-03-27T14:07:49.173Z,4.70
2019-03-27T14:10:18.437Z,7.93
2019-03-27T14:12:48.186Z,7.10
2019-03-27T14:15:17.533Z,3.83
2019-03-27T14:17:46.706Z,7.43
2019-03-27T14:20:15.878Z,4.90
2019-03-27T14:22:45.059Z,5.80
2019-03-27T14:25:14.358Z,5.37
2019-03-27T14:27:45.295Z,5.57
2019-03-27T14:30:15.020Z,4.60
2019-03-27T14:32:44.204Z,3.70
2019-03-27T14:35:13.574Z,6.63
2019-03-27T14:37:42.960Z,7.90
2019-03-27T14:40:12.487Z,4.90
2019-03-27T14:42:41.686Z,6.27
2019-03-27T14:45:11.142Z,9.43
2019-03-27T14:47:40.794Z,4.33
2019-03-27T14:50:10.065Z,6.93
2019-03-27T14:52:39.342Z,9.40
2019-03-27T14:55:10.505Z,8.47
2019-03-27T14:57:39.894Z,9.60
2019-03-27T15:00:09.762Z,8.07
2019-03-27T15:02:39.290Z,7.60
2019-03-27T15:05:09.426Z,7.00
2019-03-27T15:07:38.617Z,4.27
2019-03-27T15:10:07.946Z,4.67
2019-03-27T15:12:37.286Z,7.00
2019-03-27T15:15:07.272Z,8.93
2019-03-27T15:17:36.563Z,6.73
2019-03-27T15:20:06.655Z,6.83
2019-03-27T15:22:36.376Z,6.17
2019-03-27T15:25:06.002Z,5.80
2019-03-27T15:27:35.398Z,5.90
2019-03-27T15:30:05.210Z,7.20
2019-03-27T15:32:34.818Z,4.43
2019-03-27T15:35:04.355Z,6.53
2019-03-27T15:37:33.524Z,5.47
2019-03-27T15:40:03.002Z,8.30
2019-03-27T15:42:51.804Z,7.27
2019-03-27T15:45:41.918Z,6.03
2019-03-27T15:48:30.698Z,11.70
2019-03-27T15:51:19.174Z,5.90
2019-03-27T15:54:07.421Z,4.50
2019-03-27T15:56:56.145Z,4.27
2019-03-27T15:59:44.402Z,5.57
2019-03-27T16:02:32.964Z,5.80
2019-03-27T16:05:21.634Z,4.27
2019-03-27T16:08:10.447Z,4.60
2019-03-27T16:10:52.011Z,5.10
2019-03-27T16:13:33.496Z,4.70
2019-03-27T16:19:00.454Z,4.47
2019-03-27T16:21:41.094Z,6.77
2019-03-27T16:24:22.163Z,6.27
2019-03-27T16:29:50.706Z,6.23
2019-03-27T16:32:31.114Z,6.50
2019-03-27T16:35:11.740Z,5.73
2019-03-27T16:37:52.387Z,3.43
2019-03-27T16:40:33.118Z,9.03
2019-03-27T16:43:14.185Z,4.20
2019-03-27T16:45:54.690Z,7.07
2019-03-27T16:48:35.836Z,5.00
2019-03-27T16:51:17.017Z,5.33
2019-03-27T16:53:58.478Z,3.90
2019-03-27T16:56:40.060Z,4.13
2019-03-27T16:59:20.875Z,3.17
2019-03-27T17:02:02.565Z,5.50
2019-03-27T17:04:44.060Z,4.03
2019-03-27T17:07:25.388Z,3.27
2019-03-27T17:10:06.062Z,6.53
2019-03-27T17:12:46.786Z,8.83
2019-03-27T17:15:27.477Z,4.00
2019-03-27T17:18:09.107Z,6.17
2019-03-27T17:20:49.833Z,5.73
2019-03-27T17:23:30.717Z,7.63
2019-03-27T17:26:11.658Z,3.87
2019-03-27T17:28:52.412Z,3.70
2019-03-27T17:31:32.824Z,4.20
2019-03-27T17:34:14.036Z,4.90
2019-03-27T17:36:54.443Z,4.90
2019-03-27T17:39:35.566Z,5.87
2019-03-27T17:42:16.104Z,3.67
2019-03-27T17:44:57.463Z,4.00
2019-03-27T17:47:38.629Z,6.30
2019-03-27T17:50:19.377Z,6.87
2019-03-27T17:53:00.042Z,4.90
2019-03-27T17:55:41.511Z,7.30
2019-03-27T17:58:22.559Z,4.90
2019-03-27T18:01:04.775Z,7.50
2019-03-27T18:03:46.115Z,4.70
2019-03-27T18:06:27.227Z,4.57
2019-03-27T18:09:08.300Z,7.40
2019-03-27T18:11:49.519Z,4.83
2019-03-27T18:14:30.008Z,4.80
2019-03-27T18:17:11.049Z,5.27
2019-03-27T18:19:51.850Z,5.30
2019-03-27T18:22:33.259Z,3.70
2019-03-27T18:25:13.939Z,4.27
2019-03-27T18:27:58.240Z,4.13
2019-03-27T18:30:37.968Z,4.87
2019-03-27T18:33:19.067Z,4.13
2019-03-27T18:35:59.905Z,6.50
2019-03-27T18:38:40.958Z,4.87
2019-03-27T18:41:22.422Z,6.50
2019-03-27T18:44:03.449Z,3.73
2019-03-27T18:46:44.926Z,4.00
2019-03-27T18:49:25.695Z,4.50
2019-03-27T18:52:06.187Z,4.43
2019-03-27T18:54:47.477Z,4.30
2019-03-27T19:00:10.616Z,4.53
2019-03-27T19:02:52.076Z,4.43
2019-03-27T19:05:33.874Z,5.63
2019-03-27T19:08:15.199Z,3.40
2019-03-27T19:10:56.198Z,4.40
2019-03-27T19:13:37.263Z,4.50
2019-03-27T19:16:19.127Z,3.47
2019-03-27T19:19:00.143Z,3.93
2019-03-27T19:21:41.209Z,3.73
2019-03-27T19:24:22.208Z,4.13
2019-03-27T19:27:03.492Z,5.87
2019-03-27T19:29:45.065Z,4.67
2019-03-27T19:32:26.551Z,3.80
2019-03-27T19:35:07.053Z,3.90
2019-03-27T19:37:48.357Z,4.80
2019-03-27T19:40:29.834Z,3.83
2019-03-27T19:43:11.345Z,4.33
2019-03-27T19:45:52.537Z,9.53
2019-03-27T19:48:33.320Z,3.50
2019-03-27T19:51:14.248Z,4.53
2019-03-27T19:53:55.036Z,4.70
2019-03-27T19:56:35.758Z,5.17
2019-03-27T19:59:16.664Z,3.50
2019-03-27T20:01:57.474Z,3.93
2019-03-27T20:04:39.999Z,4.10
2019-03-27T20:07:20.269Z,4.13
2019-03-27T20:12:47.203Z,3.73
2019-03-27T20:15:28.059Z,4.10
2019-03-27T20:18:08.916Z,4.37
2019-03-27T20:20:49.855Z,3.40
2019-03-27T20:23:30.810Z,4.03
2019-03-27T20:26:11.715Z,4.27
2019-03-27T20:28:52.934Z,4.33
2019-03-27T20:31:33.383Z,3.23
2019-03-27T20:34:14.594Z,4.30
2019-03-27T20:36:55.352Z,3.90
2019-03-27T20:39:36.734Z,3.43
2019-03-27T20:42:17.203Z,4.77
2019-03-27T20:44:58.548Z,6.00
2019-03-27T20:47:39.916Z,6.57
2019-03-27T20:50:20.416Z,4.57
2019-03-27T20:53:01.784Z,3.57
2019-03-27T20:55:42.731Z,4.37
2019-03-27T20:58:23.548Z,3.57
2019-03-27T21:01:04.120Z,5.63
2019-03-27T21:03:45.150Z,5.87
2019-03-27T21:06:26.010Z,5.80
2019-03-27T21:09:06.799Z,4.60
2019-03-27T21:11:47.614Z,3.70
2019-03-27T21:14:30.671Z,4.50
2019-03-27T21:17:11.075Z,7.13
2019-03-27T21:19:52.100Z,4.27
2019-03-27T21:22:35.083Z,4.47
2019-03-27T21:25:08.948Z,3.63
2019-03-27T21:27:37.291Z,3.43
2019-03-27T21:30:08.575Z,4.07
2019-03-27T21:32:38.365Z,4.53
2019-03-27T21:35:08.153Z,4.23
2019-03-27T21:37:38.505Z,3.77
2019-03-27T21:40:08.658Z,4.33
2019-03-27T21:42:38.724Z,6.93
2019-03-27T21:45:09.396Z,4.00
2019-03-27T21:47:39.370Z,4.97
2019-03-27T21:50:09.463Z,3.63
2019-03-27T21:52:39.991Z,5.00
2019-03-27T21:55:21.916Z,3.80
2019-03-27T21:57:42.025Z,4.13
2019-03-27T22:00:11.914Z,3.53
2019-03-27T22:02:41.852Z,4.07
2019-03-27T22:05:11.746Z,4.73
2019-03-27T22:07:41.502Z,3.43
2019-03-27T22:10:25.404Z,4.27
2019-03-27T22:13:05.981Z,3.97
2019-03-27T22:15:35.860Z,3.53
2019-03-27T22:18:05.855Z,3.97
2019-03-27T22:20:35.745Z,3.83
2019-03-27T22:23:06.046Z,3.23
2019-03-27T22:25:56.538Z,4.37
2019-03-27T22:28:45.905Z,3.93
2019-03-27T22:31:15.811Z,5.60
2019-03-27T22:33:45.906Z,4.40
2019-03-27T22:36:15.482Z,4.00
2019-03-27T22:38:45.352Z,4.20
2019-03-27T22:41:15.023Z,5.20
2019-03-27T22:43:44.814Z,6.00
2019-03-27T22:46:14.860Z,5.00
2019-03-27T22:48:56.499Z,3.63
2019-03-27T22:51:27.212Z,3.70
2019-03-27T22:54:03.503Z,3.57
2019-03-27T22:56:52.988Z,3.93
2019-03-27T23:00:04.426Z,4.40
2019-03-27T23:05:55.974Z,3.50
2019-03-27T23:08:44.757Z,3.80
2019-03-27T23:11:25.739Z,5.53
2019-03-27T23:14:06.740Z,4.90
2019-03-27T23:16:48.020Z,3.47
2019-03-27T23:19:29.806Z,6.90
2019-03-27T23:22:11.086Z,3.17
2019-03-27T23:24:51.694Z,4.73
2019-03-27T23:27:32.475Z,4.80
2019-03-27T23:30:13.694Z,4.40
2019-03-27T23:32:54.733Z,3.30
2019-03-27T23:35:35.830Z,3.20
2019-03-27T23:38:16.969Z,4.50
2019-03-27T23:40:57.988Z,4.37
2019-03-27T23:43:38.889Z,3.63
2019-03-27T23:46:19.875Z,4.43
2019-03-27T23:49:00.855Z,5.40
2019-03-27T23:51:42.089Z,3.77
2019-03-27T23:54:22.871Z,4.23
2019-03-27T23:57:03.431Z,5.03
2019-03-27T23:59:44.813Z,3.60
